Time,TemperatureF,DewpointF,PressureIn,WindDirection,WindDirectionDegrees,WindSpeedMPH,WindSpeedGustMPH,Humidity,HourlyPrecipIn,Conditions,Clouds,dailyrainin,SoftwareType,DateUTC
2013-07-17 00:00:00,75.2,67.5,29.96,ESE,123,4.0,4.0,77,0.00,,,0.00,Wunderground v.1.15,2013-07-17 10:00:00,
2013-07-17 00:05:00,75.2,67.5,29.96,ESE,104,4.0,6.0,77,0.00,,,0.00,Wunderground v.1.15,2013-07-17 10:05:00,
2013-07-17 00:15:00,75.1,67.4,29.95,ESE,105,5.0,6.0,77,0.00,,,0.00,Wunderground v.1.15,2013-07-17 10:15:00,
2013-07-17 00:20:00,75.0,67.3,29.95,ESE,105,5.0,5.0,77,0.00,,,0.00,Wunderground v.1.15,2013-07-17 10:20:00,
2013-07-17 00:25:00,75.0,67.7,29.95,SE,133,4.0,5.0,78,0.00,,,0.00,Wunderground v.1.15,2013-07-17 10:25:00,
2013-07-17 00:35:00,74.8,67.5,29.94,East,87,5.0,5.0,78,0.00,,,0.00,Wunderground v.1.15,2013-07-17 10:35:00,
2013-07-17 00:45:00,74.8,67.8,29.94,East,99,5.0,6.0,79,0.00,,,0.00,Wunderground v.1.15,2013-07-17 10:45:00,
2013-07-17 00:50:00,74.7,68.1,29.94,ESE,105,5.0,7.0,80,0.00,,,0.00,Wunderground v.1.15,2013-07-17 10:50:00,
2013-07-17 01:00:00,74.5,67.9,29.94,ENE,69,4.0,6.0,80,0.00,,,0.00,Wunderground v.1.15,2013-07-17 11:00:00,
2013-07-17 01:05:00,74.6,68.0,29.94,ESE,103,5.0,6.0,80,0.00,,,0.00,Wunderground v.1.15,2013-07-17 11:05:00,
2013-07-17 01:15:00,74.7,67.8,29.94,ENE,62,6.0,6.0,79,0.00,,,0.00,Wunderground v.1.15,2013-07-17 11:15:00,
2013-07-17 01:25:00,74.7,67.8,29.93,ENE,68,5.0,5.0,79,0.00,,,0.00,Wunderground v.1.15,2013-07-17 11:25:00,
2013-07-17 01:35:00,74.7,67.8,29.93,ESE,115,6.0,6.0,79,0.00,,,0.00,Wunderground v.1.15,2013-07-17 11:35:00,
2013-07-17 01:45:00,74.8,67.5,29.93,SE,132,5.0,8.0,78,0.00,,,0.00,Wunderground v.1.15,2013-07-17 11:45:00,
2013-07-17 01:55:00,74.8,67.1,29.93,ENE,67,6.0,6.0,77,0.00,,,0.00,Wunderground v.1.15,2013-07-17 11:55:00,
2013-07-17 02:05:00,74.7,67.4,29.93,East,101,6.0,6.0,78,0.00,,,0.00,Wunderground v.1.15,2013-07-17 12:05:00,
2013-07-17 02:15:00,74.7,67.4,29.93,East,87,6.0,6.0,78,0.00,,,0.00,Wunderground v.1.15,2013-07-17 12:15:00,
2013-07-17 02:25:00,74.6,66.9,29.92,East,79,5.0,7.0,77,0.00,,,0.00,Wunderground v.1.15,2013-07-17 12:25:00,
2013-07-17 02:35:00,74.5,66.8,29.92,East,87,5.0,6.0,77,0.00,,,0.00,Wunderground v.1.15,2013-07-17 12:35:00,
2013-07-17 02:40:00,74.3,66.6,29.92,East,83,4.0,4.0,77,0.00,,,0.00,Wunderground v.1.15,2013-07-17 12:40:00,
2013-07-17 02:45:00,74.2,66.1,29.92,ENE,61,5.0,10.0,76,0.00,,,0.00,Wunderground v.1.15,2013-07-17 12:45:00,
2013-07-17 02:50:00,74.2,66.1,29.92,East,96,6.0,6.0,76,0.00,,,0.00,Wunderground v.1.15,2013-07-17 12:50:00,
2013-07-17 03:00:00,74.2,65.8,29.91,ESE,107,5.0,5.0,75,0.00,,,0.00,Wunderground v.1.15,2013-07-17 13:00:00,
2013-07-17 03:05:00,74.3,65.5,29.92,ESE,109,5.0,7.0,74,0.00,,,0.00,Wunderground v.1.15,2013-07-17 13:05:00,
2013-07-17 03:15:00,74.3,65.9,29.92,ESE,105,5.0,7.0,75,0.00,,,0.00,Wunderground v.1.15,2013-07-17 13:15:00,
2013-07-17 03:25:00,74.3,66.2,29.92,NE,49,5.0,7.0,76,0.00,,,0.00,Wunderground v.1.15,2013-07-17 13:25:00,
2013-07-17 03:30:00,74.2,65.8,29.92,East,93,4.0,4.0,75,0.00,,,0.00,Wunderground v.1.15,2013-07-17 13:30:00,
2013-07-17 03:40:00,74.3,65.9,29.92,East,90,6.0,6.0,75,0.00,,,0.00,Wunderground v.1.15,2013-07-17 13:40:00,
2013-07-17 03:50:00,74.2,65.4,29.92,ESE,117,4.0,5.0,74,0.00,,,0.00,Wunderground v.1.15,2013-07-17 13:50:00,
2013-07-17 04:00:00,74.1,64.5,29.91,ESE,105,4.0,4.0,72,0.00,,,0.00,Wunderground v.1.15,2013-07-17 14:00:00,
2013-07-17 04:05:00,74.1,64.1,29.91,ESE,122,5.0,7.0,71,0.00,,,0.00,Wunderground v.1.15,2013-07-17 14:05:00,
2013-07-17 04:15:00,74.2,63.4,29.91,ESE,105,5.0,5.0,69,0.00,,,0.00,Wunderground v.1.15,2013-07-17 14:15:00,
2013-07-17 04:25:00,74.1,62.9,29.91,East,79,4.0,4.0,68,0.00,,,0.00,Wunderground v.1.15,2013-07-17 14:25:00,
2013-07-17 04:30:00,74.1,62.9,29.91,ENE,72,3.0,3.0,68,0.00,,,0.00,Wunderground v.1.15,2013-07-17 14:30:00,
2013-07-17 04:40:00,74.0,62.3,29.91,East,88,3.0,4.0,67,0.00,,,0.00,Wunderground v.1.15,2013-07-17 14:40:00,
2013-07-17 04:50:00,73.8,62.2,29.92,ENE,77,2.0,2.0,67,0.00,,,0.00,Wunderground v.1.15,2013-07-17 14:50:00,
2013-07-17 05:00:00,73.8,61.7,29.91,East,95,3.0,3.0,66,0.00,,,0.00,Wunderground v.1.15,2013-07-17 15:00:00,
2013-07-17 05:05:00,74.0,61.9,29.91,ESE,102,4.0,4.0,66,0.00,,,0.00,Wunderground v.1.15,2013-07-17 15:05:00,
2013-07-17 05:15:00,74.1,62.0,29.91,East,101,3.0,4.0,66,0.00,,,0.00,Wunderground v.1.15,2013-07-17 15:15:00,
2013-07-17 05:25:00,74.4,61.9,29.92,East,92,4.0,4.0,65,0.00,,,0.00,Wunderground v.1.15,2013-07-17 15:25:00,
2013-07-17 05:35:00,74.2,62.5,29.92,ESE,113,3.0,7.0,67,0.00,,,0.00,Wunderground v.1.15,2013-07-17 15:35:00,
2013-07-17 05:45:00,74.2,63.0,29.92,ENE,58,4.0,7.0,68,0.00,,,0.00,Wunderground v.1.15,2013-07-17 15:45:00,
2013-07-17 05:55:00,74.2,63.0,29.92,ENE,63,5.0,5.0,68,0.00,,,0.00,Wunderground v.1.15,2013-07-17 15:55:00,
2013-07-17 06:05:00,74.0,63.2,29.92,East,84,4.0,5.0,69,0.00,,,0.00,Wunderground v.1.15,2013-07-17 16:05:00,
2013-07-17 06:15:00,74.4,64.0,29.93,ESE,102,6.0,6.0,70,0.00,,,0.00,Wunderground v.1.15,2013-07-17 16:15:00,
2013-07-17 06:25:00,74.6,64.2,29.93,ESE,107,5.0,6.0,70,0.00,,,0.00,Wunderground v.1.15,2013-07-17 16:25:00,
2013-07-17 06:30:00,74.8,64.4,29.93,East,96,6.0,6.0,70,0.00,,,0.00,Wunderground v.1.15,2013-07-17 16:30:00,
2013-07-17 06:40:00,75.3,64.4,29.94,East,80,6.0,6.0,69,0.00,,,0.00,Wunderground v.1.15,2013-07-17 16:40:00,
2013-07-17 06:50:00,75.7,65.2,29.94,East,88,5.0,7.0,70,0.00,,,0.00,Wunderground v.1.15,2013-07-17 16:50:00,
2013-07-17 07:00:00,76.1,65.6,29.94,ESE,114,4.0,11.0,70,0.00,,,0.00,Wunderground v.1.15,2013-07-17 17:00:00,
2013-07-17 07:05:00,76.2,65.7,29.94,ESE,107,5.0,11.0,70,0.00,,,0.00,Wunderground v.1.15,2013-07-17 17:05:00,
2013-07-17 07:15:00,76.7,66.2,29.94,East,91,5.0,9.0,70,0.00,,,0.00,Wunderground v.1.15,2013-07-17 17:15:00,
2013-07-17 07:20:00,77.0,65.6,29.95,ENE,75,5.0,8.0,68,0.00,,,0.00,Wunderground v.1.15,2013-07-17 17:20:00,
2013-07-17 07:30:00,77.2,66.2,29.95,East,88,7.0,7.0,69,0.00,,,0.00,Wunderground v.1.15,2013-07-17 17:30:00,
2013-07-17 07:40:00,77.5,66.1,29.95,East,96,6.0,6.0,68,0.00,,,0.00,Wunderground v.1.15,2013-07-17 17:40:00,
2013-07-17 07:50:00,78.0,66.2,29.95,East,101,6.0,6.0,67,0.00,,,0.00,Wunderground v.1.15,2013-07-17 17:50:00,
2013-07-17 08:00:00,78.6,66.3,29.95,East,101,5.0,5.0,66,0.00,,,0.00,Wunderground v.1.15,2013-07-17 18:00:00,
2013-07-17 08:05:00,78.9,66.1,29.95,ENE,59,5.0,5.0,65,0.00,,,0.00,Wunderground v.1.15,2013-07-17 18:05:00,
2013-07-17 08:15:00,79.5,66.3,29.95,ESE,104,4.0,7.0,64,0.00,,,0.00,Wunderground v.1.15,2013-07-17 18:15:00,
2013-07-17 08:25:00,79.6,65.9,29.95,East,96,6.0,6.0,63,0.00,,,0.00,Wunderground v.1.15,2013-07-17 18:25:00,
2013-07-17 08:35:00,80.0,66.3,29.96,NE,45,5.0,6.0,63,0.00,,,0.00,Wunderground v.1.15,2013-07-17 18:35:00,
2013-07-17 08:40:00,80.1,65.4,29.96,ENE,74,6.0,6.0,61,0.00,,,0.00,Wunderground v.1.15,2013-07-17 18:40:00,
2013-07-17 08:50:00,80.0,66.7,29.97,East,95,7.0,9.0,64,0.00,,,0.00,Wunderground v.1.15,2013-07-17 18:50:00,
2013-07-17 09:00:00,80.9,67.6,29.96,East,86,6.0,6.0,64,0.00,,,0.00,Wunderground v.1.15,2013-07-17 19:00:00,
2013-07-17 09:05:00,81.3,68.0,29.96,East,85,5.0,6.0,64,0.00,,,0.00,Wunderground v.1.15,2013-07-17 19:05:00,
2013-07-17 09:15:00,81.9,68.1,29.97,East,99,4.0,5.0,63,0.00,,,0.00,Wunderground v.1.15,2013-07-17 19:15:00,
2013-07-17 09:25:00,81.4,67.1,29.97,East,86,6.0,11.0,62,0.00,,,0.00,Wunderground v.1.15,2013-07-17 19:25:00,
2013-07-17 09:30:00,81.1,67.3,29.97,ENE,70,8.0,13.0,63,0.00,,,0.00,Wunderground v.1.15,2013-07-17 19:30:00,
2013-07-17 09:40:00,80.7,66.9,29.97,East,84,8.0,9.0,63,0.00,,,0.00,Wunderground v.1.15,2013-07-17 19:40:00,
2013-07-17 09:50:00,81.6,69.1,29.97,East,80,6.0,10.0,66,0.00,,,0.00,Wunderground v.1.15,2013-07-17 19:50:00,
2013-07-17 10:00:00,81.6,67.3,29.96,ENE,71,7.0,10.0,62,0.00,,,0.00,Wunderground v.1.15,2013-07-17 20:00:00,
2013-07-17 10:05:00,81.6,67.8,29.96,ENE,68,8.0,10.0,63,0.00,,,0.00,Wunderground v.1.15,2013-07-17 20:05:00,
2013-07-17 10:15:00,81.8,68.0,29.97,ESE,103,7.0,9.0,63,0.00,,,0.00,Wunderground v.1.15,2013-07-17 20:15:00,
2013-07-17 10:25:00,81.9,67.1,29.96,ENE,68,7.0,8.0,61,0.00,,,0.00,Wunderground v.1.15,2013-07-17 20:25:00,
2013-07-17 10:35:00,82.1,67.8,29.97,SE,124,7.0,11.0,62,0.00,,,0.00,Wunderground v.1.15,2013-07-17 20:35:00,
2013-07-17 10:45:00,83.0,67.2,29.97,ENE,76,6.0,14.0,59,0.00,,,0.00,Wunderground v.1.15,2013-07-17 20:45:00,
2013-07-17 10:50:00,82.9,67.1,29.97,East,98,7.0,7.0,59,0.00,,,0.00,Wunderground v.1.15,2013-07-17 20:50:00,
2013-07-17 11:00:00,82.7,66.9,29.96,ESE,111,9.0,9.0,59,0.00,,,0.00,Wunderground v.1.15,2013-07-17 21:00:00,
2013-07-17 11:05:00,82.7,68.8,29.96,East,99,9.0,9.0,63,0.00,,,0.00,Wunderground v.1.15,2013-07-17 21:05:00,
2013-07-17 11:15:00,82.9,68.1,29.96,East,99,6.0,12.0,61,0.00,,,0.00,Wunderground v.1.15,2013-07-17 21:15:00,
2013-07-17 11:25:00,81.8,69.8,29.96,NE,51,7.0,7.0,67,0.00,,,0.00,Wunderground v.1.15,2013-07-17 21:25:00,
2013-07-17 11:35:00,82.7,70.2,29.96,NE,51,6.0,11.0,66,0.00,,,0.00,Wunderground v.1.15,2013-07-17 21:35:00,
2013-07-17 11:40:00,82.7,68.4,29.96,East,96,7.0,9.0,62,0.00,,,0.00,Wunderground v.1.15,2013-07-17 21:40:00,
2013-07-17 11:50:00,82.7,68.8,29.96,ESE,103,8.0,8.0,63,0.00,,,0.00,Wunderground v.1.15,2013-07-17 21:50:00,
2013-07-17 12:00:00,82.5,69.5,29.95,ESE,107,7.0,7.0,65,0.00,,,0.00,Wunderground v.1.15,2013-07-17 22:00:00,
2013-07-17 12:05:00,82.8,68.9,29.96,ENE,61,8.0,11.0,63,0.00,,,0.00,Wunderground v.1.15,2013-07-17 22:05:00,
2013-07-17 12:15:00,82.4,67.6,29.96,ESE,108,8.0,13.0,61,0.00,,,0.00,Wunderground v.1.15,2013-07-17 22:15:00,
2013-07-17 12:25:00,81.9,66.2,29.96,ESE,119,9.0,16.0,59,0.00,,,0.00,Wunderground v.1.15,2013-07-17 22:25:00,
2013-07-17 12:35:00,82.5,67.2,29.95,East,90,8.0,15.0,60,0.00,,,0.00,Wunderground v.1.15,2013-07-17 22:35:00,
2013-07-17 12:45:00,82.5,67.7,29.95,ESE,111,7.0,7.0,61,0.00,,,0.00,Wunderground v.1.15,2013-07-17 22:45:00,
2013-07-17 12:55:00,83.0,66.7,29.94,East,91,6.0,9.0,58,0.00,,,0.00,Wunderground v.1.15,2013-07-17 22:55:00,
2013-07-17 13:00:00,82.3,66.5,29.94,NE,55,7.0,7.0,59,0.00,,,0.00,Wunderground v.1.15,2013-07-17 23:00:00,
2013-07-17 13:05:00,82.7,67.9,29.94,East,101,8.0,10.0,61,0.00,,,0.00,Wunderground v.1.15,2013-07-17 23:05:00,
2013-07-17 13:15:00,82.5,67.7,29.94,East,90,8.0,10.0,61,0.00,,,0.00,Wunderground v.1.15,2013-07-17 23:15:00,
2013-07-17 13:25:00,82.3,67.5,29.94,East,86,8.0,10.0,61,0.00,,,0.00,Wunderground v.1.15,2013-07-17 23:25:00,
2013-07-17 13:35:00,82.7,66.4,29.94,ESE,107,9.0,9.0,58,0.00,,,0.00,Wunderground v.1.15,2013-07-17 23:35:00,
2013-07-17 13:45:00,83.4,67.1,29.93,East,82,8.0,11.0,58,0.00,,,0.00,Wunderground v.1.15,2013-07-17 23:45:00,
2013-07-17 13:55:00,82.5,67.2,29.93,East,84,9.0,10.0,60,0.00,,,0.00,Wunderground v.1.15,2013-07-17 23:55:00,
2013-07-17 14:00:00,83.0,67.2,29.93,East,96,8.0,8.0,59,0.00,,,0.00,Wunderground v.1.15,2013-07-18 00:00:00,
2013-07-17 14:05:00,83.6,66.8,29.93,East,90,7.0,11.0,57,0.00,,,0.00,Wunderground v.1.15,2013-07-18 00:05:00,
2013-07-17 14:15:00,82.3,67.0,29.92,East,84,9.0,10.0,60,0.00,,,0.00,Wunderground v.1.15,2013-07-18 00:15:00,
2013-07-17 14:25:00,82.5,66.2,29.93,ESE,107,9.0,12.0,58,0.00,,,0.00,Wunderground v.1.15,2013-07-18 00:25:00,
2013-07-17 14:35:00,82.6,66.8,29.93,East,88,8.0,11.0,59,0.00,,,0.00,Wunderground v.1.15,2013-07-18 00:35:00,
2013-07-17 14:45:00,82.6,67.3,29.93,East,82,8.0,8.0,60,0.00,,,0.00,Wunderground v.1.15,2013-07-18 00:45:00,
2013-07-17 14:55:00,82.8,66.0,29.93,ESE,107,8.0,10.0,57,0.00,,,0.00,Wunderground v.1.15,2013-07-18 00:55:00,
2013-07-17 15:05:00,82.5,66.2,29.92,ENE,67,8.0,10.0,58,0.00,,,0.00,Wunderground v.1.15,2013-07-18 01:05:00,
2013-07-17 15:15:00,82.1,65.9,29.92,ESE,122,10.0,11.0,58,0.00,,,0.00,Wunderground v.1.15,2013-07-18 01:15:00,
2013-07-17 15:25:00,82.2,66.4,29.92,ESE,102,8.0,20.0,59,0.00,,,0.00,Wunderground v.1.15,2013-07-18 01:25:00,
2013-07-17 15:35:00,81.8,67.5,29.92,East,101,9.0,10.0,62,0.00,,,0.00,Wunderground v.1.15,2013-07-18 01:35:00,
2013-07-17 15:45:00,81.8,67.0,29.92,ESE,115,7.0,8.0,61,0.00,,,0.00,Wunderground v.1.15,2013-07-18 01:45:00,
2013-07-17 15:55:00,81.8,67.0,29.92,ESE,111,8.0,9.0,61,0.00,,,0.00,Wunderground v.1.15,2013-07-18 01:55:00,
2013-07-17 16:05:00,81.7,66.9,29.92,NE,42,8.0,8.0,61,0.00,,,0.00,Wunderground v.1.15,2013-07-18 02:05:00,
2013-07-17 16:15:00,81.6,67.3,29.92,ENE,57,8.0,14.0,62,0.00,,,0.00,Wunderground v.1.15,2013-07-18 02:15:00,
2013-07-17 16:25:00,81.3,67.0,29.92,East,89,7.0,7.0,62,0.00,,,0.00,Wunderground v.1.15,2013-07-18 02:25:00,
2013-07-17 16:35:00,81.2,66.9,29.92,ESE,105,7.0,15.0,62,0.00,,,0.00,Wunderground v.1.15,2013-07-18 02:35:00,
2013-07-17 16:40:00,80.7,67.8,29.92,East,90,8.0,8.0,65,0.00,,,0.00,Wunderground v.1.15,2013-07-18 02:40:00,
2013-07-17 16:50:00,80.6,67.3,29.92,NE,53,8.0,9.0,64,0.00,,,0.00,Wunderground v.1.15,2013-07-18 02:50:00,
2013-07-17 17:00:00,80.5,68.1,29.92,East,96,7.0,7.0,66,0.00,,,0.00,Wunderground v.1.15,2013-07-18 03:00:00,
2013-07-17 17:05:00,80.2,67.4,29.91,ESE,119,8.0,9.0,65,0.00,,,0.00,Wunderground v.1.15,2013-07-18 03:05:00,
2013-07-17 17:15:00,80.6,68.2,29.91,East,97,6.0,9.0,66,0.00,,,0.00,Wunderground v.1.15,2013-07-18 03:15:00,
2013-07-17 17:25:00,80.0,68.9,29.92,ENE,63,7.0,11.0,69,0.00,,,0.00,Wunderground v.1.15,2013-07-18 03:25:00,
2013-07-17 17:30:00,79.6,68.5,29.92,ENE,59,7.0,7.0,69,0.00,,,0.00,Wunderground v.1.15,2013-07-18 03:30:00,
2013-07-17 17:40:00,78.6,68.4,29.92,ENE,65,8.0,8.0,71,0.00,,,0.00,Wunderground v.1.15,2013-07-18 03:40:00,
2013-07-17 17:50:00,78.4,68.6,29.92,ENE,65,6.0,6.0,72,0.00,,,0.00,Wunderground v.1.15,2013-07-18 03:50:00,
2013-07-17 17:55:00,78.7,68.5,29.92,ENE,61,6.0,11.0,71,0.00,,,0.00,Wunderground v.1.15,2013-07-18 03:55:00,
2013-07-17 18:05:00,78.1,69.1,29.92,East,100,8.0,9.0,74,0.00,,,0.00,Wunderground v.1.15,2013-07-18 04:05:00,
2013-07-17 18:15:00,78.1,67.9,29.93,East,85,6.0,10.0,71,0.00,,,0.00,Wunderground v.1.15,2013-07-18 04:15:00,
2013-07-17 18:20:00,78.0,68.2,29.93,ENE,76,6.0,6.0,72,0.00,,,0.00,Wunderground v.1.15,2013-07-18 04:20:00,
2013-07-17 18:25:00,77.9,67.7,29.93,East,84,6.0,11.0,71,0.00,,,0.00,Wunderground v.1.15,2013-07-18 04:25:00,
2013-07-17 18:35:00,77.6,67.9,29.93,East,84,6.0,6.0,72,0.00,,,0.00,Wunderground v.1.15,2013-07-18 04:35:00,
2013-07-17 18:40:00,77.6,67.4,29.94,ESE,109,5.0,5.0,71,0.00,,,0.00,Wunderground v.1.15,2013-07-18 04:40:00,
2013-07-17 18:50:00,77.3,67.6,29.94,East,94,5.0,5.0,72,0.00,,,0.00,Wunderground v.1.15,2013-07-18 04:50:00,
2013-07-17 18:55:00,77.0,67.7,29.94,ESE,117,5.0,5.0,73,0.00,,,0.00,Wunderground v.1.15,2013-07-18 04:55:00,
2013-07-17 19:05:00,76.4,67.1,29.94,East,93,4.0,7.0,73,0.00,,,0.00,Wunderground v.1.15,2013-07-18 05:05:00,
2013-07-17 19:15:00,76.1,67.6,29.94,ESE,107,5.0,9.0,75,0.00,,,0.00,Wunderground v.1.15,2013-07-18 05:15:00,
2013-07-17 19:25:00,76.0,67.9,29.94,East,94,7.0,10.0,76,0.00,,,0.00,Wunderground v.1.15,2013-07-18 05:25:00,
2013-07-17 19:35:00,75.7,67.6,29.94,ESE,111,7.0,7.0,76,0.00,,,0.00,Wunderground v.1.15,2013-07-18 05:35:00,
2013-07-17 19:40:00,75.5,68.2,29.95,ENE,74,6.0,6.0,78,0.00,,,0.00,Wunderground v.1.15,2013-07-18 05:40:00,
2013-07-17 19:50:00,75.1,68.1,29.95,East,100,7.0,7.0,79,0.00,,,0.00,Wunderground v.1.15,2013-07-18 05:50:00,
2013-07-17 20:00:00,74.9,67.9,29.95,East,96,7.0,8.0,79,0.00,,,0.00,Wunderground v.1.15,2013-07-18 06:00:00,
2013-07-17 20:05:00,74.8,67.8,29.96,ESE,123,7.0,8.0,79,0.00,,,0.00,Wunderground v.1.15,2013-07-18 06:05:00,
2013-07-17 20:15:00,74.7,67.8,29.96,SE,127,7.0,7.0,79,0.00,,,0.00,Wunderground v.1.15,2013-07-18 06:15:00,
2013-07-17 20:25:00,74.8,66.3,29.97,ESE,107,7.0,9.0,75,0.00,,,0.00,Wunderground v.1.15,2013-07-18 06:25:00,
2013-07-17 20:30:00,74.9,66.4,29.97,ESE,118,6.0,6.0,75,0.00,,,0.00,Wunderground v.1.15,2013-07-18 06:30:00,
2013-07-17 20:40:00,74.9,67.2,29.96,East,82,5.0,6.0,77,0.00,,,0.00,Wunderground v.1.15,2013-07-18 06:40:00,
2013-07-17 20:50:00,74.8,67.5,29.97,ESE,114,4.0,4.0,78,0.00,,,0.00,Wunderground v.1.15,2013-07-18 06:50:00,
2013-07-17 21:00:00,74.9,67.2,29.97,ESE,106,5.0,7.0,77,0.00,,,0.00,Wunderground v.1.15,2013-07-18 07:00:00,
2013-07-17 21:05:00,75.1,67.4,29.97,ESE,109,6.0,7.0,77,0.00,,,0.00,Wunderground v.1.15,2013-07-18 07:05:00,
2013-07-17 21:15:00,75.2,67.5,29.98,ESE,112,5.0,9.0,77,0.00,,,0.00,Wunderground v.1.15,2013-07-18 07:15:00,
2013-07-17 21:20:00,75.2,67.5,29.98,ESE,109,5.0,6.0,77,0.00,,,0.00,Wunderground v.1.15,2013-07-18 07:20:00,
2013-07-17 21:30:00,75.3,68.0,29.98,ESE,111,5.0,5.0,78,0.00,,,0.00,Wunderground v.1.15,2013-07-18 07:30:00,
2013-07-17 21:40:00,74.4,68.9,29.99,East,94,4.0,4.0,83,0.24,,,0.02,Wunderground v.1.15,2013-07-18 07:40:00,
2013-07-17 21:50:00,73.1,68.3,29.99,East,92,2.0,2.0,85,0.05,,,0.02,Wunderground v.1.15,2013-07-18 07:50:00,
2013-07-17 21:55:00,73.0,68.2,29.99,ESE,114,2.0,4.0,85,0.04,,,0.02,Wunderground v.1.15,2013-07-18 07:55:00,
2013-07-17 22:05:00,72.8,68.0,29.99,ENE,78,2.0,6.0,85,0.00,,,0.02,Wunderground v.1.15,2013-07-18 08:05:00,
2013-07-17 22:15:00,73.0,68.2,29.99,East,81,3.0,4.0,85,0.00,,,0.02,Wunderground v.1.15,2013-07-18 08:15:00,
2013-07-17 22:25:00,73.3,68.5,29.99,ESE,118,4.0,4.0,85,0.00,,,0.02,Wunderground v.1.15,2013-07-18 08:25:00,
2013-07-17 22:35:00,73.5,68.4,29.99,ESE,109,4.0,8.0,84,0.00,,,0.02,Wunderground v.1.15,2013-07-18 08:35:00,
2013-07-17 22:40:00,73.6,68.1,29.99,ESE,113,4.0,10.0,83,0.00,,,0.02,Wunderground v.1.15,2013-07-18 08:40:00,
2013-07-17 22:50:00,73.7,68.2,29.99,ESE,114,5.0,5.0,83,0.00,,,0.02,Wunderground v.1.15,2013-07-18 08:50:00,
2013-07-17 23:00:00,73.8,68.3,29.99,ESE,113,5.0,5.0,83,0.00,,,0.02,Wunderground v.1.15,2013-07-18 09:00:00,
2013-07-17 23:05:00,73.8,68.0,29.99,East,86,5.0,5.0,82,0.00,,,0.02,Wunderground v.1.15,2013-07-18 09:05:00,
2013-07-17 23:15:00,74.0,68.2,29.99,East,98,4.0,5.0,82,0.00,,,0.02,Wunderground v.1.15,2013-07-18 09:15:00,
2013-07-17 23:25:00,74.1,67.9,29.99,East,91,4.0,5.0,81,0.00,,,0.02,Wunderground v.1.15,2013-07-18 09:25:00,
2013-07-17 23:30:00,74.2,68.3,29.98,East,92,3.0,3.0,82,0.00,,,0.02,Wunderground v.1.15,2013-07-18 09:30:00,
2013-07-17 23:40:00,74.1,68.3,29.98,ESE,104,3.0,3.0,82,0.00,,,0.02,Wunderground v.1.15,2013-07-18 09:40:00,
2013-07-17 23:50:00,74.4,68.2,29.98,East,81,5.0,5.0,81,0.00,,,0.02,Wunderground v.1.15,2013-07-18 09:50:00,